createdAt,value
2018-02-13T00:01:21.931Z,4.07
2018-02-13T00:03:49.381Z,4.87
2018-02-13T00:06:16.803Z,4.53
2018-02-13T00:08:44.223Z,4.97
2018-02-13T00:11:12.419Z,4.90
2018-02-13T00:13:39.847Z,4.60
2018-02-13T00:16:07.290Z,4.80
2018-02-13T00:18:34.727Z,5.10
2018-02-13T00:21:02.163Z,4.53
2018-02-13T00:23:29.623Z,5.60
2018-02-13T00:25:57.056Z,4.77
2018-02-13T00:28:24.479Z,4.87
2018-02-13T00:30:52.677Z,4.83
2018-02-13T00:33:20.128Z,5.30
2018-02-13T00:35:47.540Z,4.43
2018-02-13T00:38:14.960Z,5.20
2018-02-13T00:40:43.171Z,4.83
2018-02-13T00:43:10.591Z,4.73
2018-02-13T00:45:38.023Z,4.70
2018-02-13T00:48:05.460Z,4.37
2018-02-13T00:50:32.920Z,4.90
2018-02-13T00:53:00.335Z,4.87
2018-02-13T00:55:27.770Z,4.97
2018-02-13T00:57:55.971Z,5.60
2018-02-13T01:00:24.112Z,5.10
2018-02-13T01:02:51.547Z,5.10
2018-02-13T01:05:19.008Z,4.60
2018-02-13T01:07:46.435Z,5.00
2018-02-13T01:10:13.864Z,4.80
2018-02-13T01:12:41.307Z,4.90
2018-02-13T01:15:09.511Z,4.97
2018-02-13T01:17:36.922Z,5.10
2018-02-13T01:20:04.356Z,4.53
2018-02-13T01:22:31.775Z,3.80
2018-02-13T01:24:59.967Z,4.60
2018-02-13T01:27:27.402Z,4.10
2018-02-13T01:29:54.829Z,4.37
2018-02-13T01:32:23.017Z,4.23
2018-02-13T01:34:50.433Z,4.60
2018-02-13T01:37:17.873Z,4.97
2018-02-13T01:39:46.046Z,4.40
2018-02-13T01:42:13.488Z,4.93
2018-02-13T01:44:40.908Z,5.17
2018-02-13T01:47:09.095Z,5.83
2018-02-13T01:49:36.519Z,5.40
2018-02-13T01:52:03.948Z,5.80
2018-02-13T01:54:32.135Z,5.33
2018-02-13T01:56:59.571Z,4.93
2018-02-13T01:59:27.012Z,5.03
2018-02-13T02:01:54.469Z,5.20
2018-02-13T02:04:21.896Z,4.90
2018-02-13T02:06:49.337Z,4.93
2018-02-13T02:09:16.758Z,4.70
2018-02-13T02:11:44.179Z,5.83
2018-02-13T02:14:11.635Z,6.10
2018-02-13T02:16:39.056Z,5.47
2018-02-13T02:19:06.492Z,5.90
2018-02-13T02:21:33.927Z,5.43
2018-02-13T02:24:01.360Z,5.93
2018-02-13T02:26:28.780Z,5.87
2018-02-13T02:28:56.192Z,6.00
2018-02-13T02:31:23.618Z,7.20
2018-02-13T02:33:51.844Z,6.40
2018-02-13T02:36:19.273Z,6.93
2018-02-13T02:38:46.699Z,6.90
2018-02-13T02:41:14.132Z,6.63
2018-02-13T02:43:41.563Z,7.03
2018-02-13T02:46:08.987Z,7.40
2018-02-13T02:48:37.199Z,6.67
2018-02-13T02:51:04.647Z,6.23
2018-02-13T02:53:32.064Z,6.77
2018-02-13T02:55:59.491Z,6.53
2018-02-13T02:58:26.936Z,5.77
2018-02-13T03:00:54.367Z,6.23
2018-02-13T03:03:21.792Z,6.13
2018-02-13T03:05:49.987Z,5.63
2018-02-13T03:08:17.432Z,6.57
2018-02-13T03:10:44.852Z,6.10
2018-02-13T03:13:12.291Z,6.30
2018-02-13T03:15:39.723Z,6.13
2018-02-13T03:18:07.940Z,6.37
2018-02-13T03:20:35.369Z,6.23
2018-02-13T03:23:02.797Z,5.83
2018-02-13T03:25:30.236Z,6.43
2018-02-13T03:27:57.675Z,6.00
2018-02-13T03:30:25.100Z,5.30
2018-02-13T03:32:52.547Z,5.20
2018-02-13T03:35:19.979Z,5.07
2018-02-13T03:37:47.427Z,5.27
2018-02-13T03:40:14.859Z,5.40
2018-02-13T03:42:43.056Z,5.67
2018-02-13T03:45:10.500Z,5.33
2018-02-13T03:47:37.940Z,6.97
2018-02-13T03:50:05.399Z,5.87
2018-02-13T03:52:32.818Z,6.77
2018-02-13T03:55:00.239Z,6.07
2018-02-13T03:57:27.675Z,6.57
2018-02-13T03:59:55.107Z,5.70
2018-02-13T04:02:22.539Z,5.90
2018-02-13T04:04:50.744Z,5.33
2018-02-13T04:07:18.176Z,5.20
2018-02-13T04:09:45.640Z,5.07
2018-02-13T04:12:13.072Z,4.50
2018-02-13T04:14:40.531Z,4.50
2018-02-13T04:17:07.960Z,4.37
2018-02-13T04:19:35.399Z,3.57
2018-02-13T04:22:02.819Z,4.07
2018-02-13T04:24:30.238Z,4.17
2018-02-13T04:26:58.428Z,3.90
2018-02-13T04:29:25.880Z,3.67
2018-02-13T04:31:53.312Z,4.07
2018-02-13T04:34:20.771Z,3.83
2018-02-13T04:36:48.199Z,3.50
2018-02-13T04:39:15.629Z,3.80
2018-02-13T04:41:43.071Z,4.23
2018-02-13T04:44:10.503Z,3.93
2018-02-13T04:46:38.722Z,4.23
2018-02-13T04:49:06.155Z,4.00
2018-02-13T04:51:33.584Z,3.37
2018-02-13T04:54:01.063Z,3.83
2018-02-13T04:56:29.263Z,4.03
2018-02-13T04:58:56.683Z,3.67
2018-02-13T05:01:24.136Z,3.37
2018-02-13T05:03:51.548Z,4.07
2018-02-13T05:06:19.755Z,4.07
2018-02-13T05:08:47.188Z,3.93
2018-02-13T05:11:14.632Z,4.27
2018-02-13T05:13:42.076Z,4.30
2018-02-13T05:16:09.539Z,4.27
2018-02-13T05:18:37.029Z,4.47
2018-02-13T05:21:04.408Z,4.67
2018-02-13T05:23:31.848Z,4.13
2018-02-13T05:25:59.368Z,4.20
2018-02-13T05:28:26.819Z,4.40
2018-02-13T05:30:54.227Z,4.30
2018-02-13T05:33:22.429Z,4.10
2018-02-13T05:35:49.872Z,3.90
2018-02-13T05:38:17.312Z,4.27
2018-02-13T05:40:44.735Z,4.57
2018-02-13T05:43:12.172Z,4.90
2018-02-13T05:45:39.603Z,4.17
2018-02-13T05:48:07.775Z,4.63
2018-02-13T05:50:35.214Z,5.33
2018-02-13T05:53:02.651Z,5.90
2018-02-13T05:55:30.098Z,4.17
2018-02-13T05:57:57.515Z,4.43
2018-02-13T06:00:25.719Z,4.50
2018-02-13T06:02:53.169Z,5.47
2018-02-13T06:05:20.739Z,5.37
2018-02-13T06:07:48.159Z,5.20
2018-02-13T06:10:15.587Z,5.37
2018-02-13T06:12:43.030Z,5.07
2018-02-13T06:15:10.439Z,5.00
2018-02-13T06:17:38.635Z,6.23
2018-02-13T06:20:06.083Z,5.93
2018-02-13T06:22:33.507Z,6.17
2018-02-13T06:25:00.939Z,6.07
2018-02-13T06:27:28.400Z,5.70
2018-02-13T06:29:55.824Z,6.17
2018-02-13T06:32:23.260Z,6.40
2018-02-13T06:34:50.698Z,6.00
2018-02-13T06:37:18.883Z,5.20
2018-02-13T06:39:46.315Z,5.93
2018-02-13T06:42:13.780Z,6.00
2018-02-13T06:44:41.236Z,5.70
2018-02-13T06:47:08.647Z,5.80
2018-02-13T06:49:36.103Z,5.50
2018-02-13T06:52:03.546Z,5.80
2018-02-13T06:54:30.967Z,5.80
2018-02-13T06:56:58.391Z,5.47
2018-02-13T06:59:25.837Z,5.10
2018-02-13T07:01:53.258Z,5.70
2018-02-13T07:04:21.463Z,6.00
2018-02-13T07:06:48.887Z,5.90
2018-02-13T07:09:16.319Z,6.73
2018-02-13T07:11:43.744Z,7.13
2018-02-13T07:14:11.195Z,6.40
2018-02-13T07:16:38.651Z,6.07
2018-02-13T07:19:06.831Z,6.17
2018-02-13T07:21:34.247Z,5.90
2018-02-13T07:24:01.684Z,6.37
2018-02-13T07:26:29.100Z,5.97
2018-02-13T07:28:57.324Z,6.63
2018-02-13T07:31:24.739Z,6.40
2018-02-13T07:33:52.176Z,5.40
2018-02-13T07:36:19.591Z,5.60
2018-02-13T07:38:47.011Z,5.73
2018-02-13T07:41:14.439Z,5.70
2018-02-13T07:43:41.876Z,5.87
2018-02-13T07:46:09.307Z,5.40
2018-02-13T07:48:36.732Z,5.77
2018-02-13T07:51:04.176Z,6.60
2018-02-13T07:53:31.605Z,6.07
2018-02-13T07:55:59.050Z,5.50
2018-02-13T07:58:26.472Z,5.77
2018-02-13T08:00:53.904Z,6.17
2018-02-13T08:03:22.087Z,6.23
2018-02-13T08:05:49.509Z,5.30
2018-02-13T08:08:16.939Z,5.07
2018-02-13T08:10:45.124Z,4.53
2018-02-13T08:13:12.564Z,4.97
2018-02-13T08:15:39.981Z,4.43
2018-02-13T08:18:08.175Z,4.40
2018-02-13T08:20:35.614Z,4.33
2018-02-13T08:23:03.056Z,4.07
2018-02-13T08:25:30.481Z,4.03
2018-02-13T08:27:57.899Z,4.40
2018-02-13T08:30:26.091Z,4.67
2018-02-13T08:32:53.524Z,4.70
2018-02-13T08:35:20.947Z,5.23
2018-02-13T08:37:49.132Z,4.90
2018-02-13T08:40:16.555Z,5.20
2018-02-13T08:42:43.975Z,5.10
2018-02-13T08:45:11.399Z,5.40
2018-02-13T08:47:38.839Z,6.50
2018-02-13T08:50:06.286Z,6.23
2018-02-13T08:52:33.709Z,6.47
2018-02-13T08:55:01.151Z,6.23
2018-02-13T08:57:28.587Z,6.20
2018-02-13T08:59:56.022Z,6.73
2018-02-13T09:02:23.454Z,6.80
2018-02-13T09:04:50.895Z,7.03
2018-02-13T09:07:18.313Z,6.63
2018-02-13T09:09:45.736Z,6.43
2018-02-13T09:12:13.167Z,6.13
2018-02-13T09:14:41.356Z,6.73
2018-02-13T09:17:08.787Z,6.53
2018-02-13T09:19:36.988Z,6.77
2018-02-13T09:22:04.398Z,6.73
2018-02-13T09:24:31.836Z,6.70
2018-02-13T09:26:59.268Z,7.00
2018-02-13T09:29:27.463Z,6.23
2018-02-13T09:31:54.891Z,6.30
2018-02-13T09:34:22.316Z,7.07
2018-02-13T09:36:50.516Z,5.63
2018-02-13T09:39:17.952Z,5.07
2018-02-13T09:41:45.380Z,4.50
2018-02-13T09:44:12.803Z,4.57
2018-02-13T09:46:40.983Z,4.77
2018-02-13T09:49:08.399Z,4.53
2018-02-13T09:51:35.815Z,4.30
2018-02-13T09:54:04.024Z,4.40
2018-02-13T09:56:31.431Z,4.00
2018-02-13T09:58:59.641Z,4.50
2018-02-13T10:01:27.067Z,4.50
2018-02-13T10:03:54.501Z,4.33
2018-02-13T10:06:21.919Z,4.07
2018-02-13T10:08:50.111Z,4.10
2018-02-13T10:11:17.539Z,4.07
2018-02-13T10:13:44.962Z,4.10
2018-02-13T10:16:13.147Z,4.00
2018-02-13T10:18:40.572Z,4.80
2018-02-13T10:21:07.996Z,4.57
2018-02-13T10:23:36.179Z,4.20
2018-02-13T10:26:03.627Z,3.97
2018-02-13T10:28:31.064Z,3.70
2018-02-13T10:30:58.499Z,4.47
2018-02-13T10:33:25.933Z,3.53
2018-02-13T10:35:54.115Z,3.37
2018-02-13T10:38:21.531Z,2.93
2018-02-13T10:40:48.955Z,2.73
2018-02-13T10:43:17.168Z,3.27
2018-02-13T10:45:44.571Z,2.37
2018-02-13T10:48:12.083Z,2.90
2018-02-13T10:50:39.496Z,2.87
2018-02-13T10:53:06.947Z,2.77
2018-02-13T10:55:34.359Z,2.60
2018-02-13T10:58:01.771Z,2.47
2018-02-13T11:00:35.614Z,1.90
2018-02-13T11:03:03.037Z,2.00
2018-02-13T11:05:30.460Z,1.93
2018-02-13T11:07:57.892Z,1.60
2018-02-13T11:10:26.067Z,1.70
2018-02-13T11:12:53.507Z,1.80
2018-02-13T11:15:20.940Z,1.90
2018-02-13T11:17:48.363Z,1.70
2018-02-13T11:20:16.555Z,2.40
2018-02-13T11:22:43.976Z,1.87
2018-02-13T11:25:12.169Z,2.13
2018-02-13T11:27:39.583Z,1.90
2018-02-13T11:30:07.010Z,2.00
2018-02-13T11:32:34.468Z,2.07
2018-02-13T11:35:02.624Z,2.37
2018-02-13T11:37:30.056Z,2.27
2018-02-13T11:39:57.464Z,2.33
2018-02-13T11:42:24.891Z,2.13
2018-02-13T11:44:52.320Z,2.27
2018-02-13T11:47:19.745Z,2.70
2018-02-13T11:49:47.160Z,1.90
2018-02-13T11:52:15.348Z,2.00
2018-02-13T11:54:42.783Z,1.90
2018-02-13T11:57:10.200Z,2.30
2018-02-13T11:59:38.397Z,1.80
2018-02-13T12:02:05.824Z,2.20
2018-02-13T12:04:33.265Z,2.20
2018-02-13T12:07:00.702Z,2.10
2018-02-13T12:09:28.119Z,1.90
2018-02-13T12:11:56.296Z,2.50
2018-02-13T12:14:23.719Z,2.23
2018-02-13T12:16:51.908Z,1.90
2018-02-13T12:19:19.335Z,2.10
2018-02-13T12:21:46.765Z,1.93
2018-02-13T12:24:14.183Z,2.27
2018-02-13T12:26:41.608Z,2.13
2018-02-13T12:29:09.030Z,2.00
2018-02-13T12:31:36.439Z,2.37
2018-02-13T12:34:03.874Z,2.53
2018-02-13T12:36:32.056Z,2.10
2018-02-13T12:38:59.523Z,2.07
2018-02-13T12:41:26.955Z,1.53
2018-02-13T12:43:54.377Z,1.50
2018-02-13T12:46:21.795Z,1.50
2018-02-13T12:48:49.975Z,1.40
2018-02-13T12:51:17.411Z,1.50
2018-02-13T12:53:44.835Z,1.60
2018-02-13T12:56:13.068Z,1.37
2018-02-13T12:58:40.498Z,1.70
2018-02-13T13:01:07.919Z,1.23
2018-02-13T13:03:35.344Z,1.37
2018-02-13T13:06:02.818Z,1.37
2018-02-13T13:08:30.226Z,1.53
2018-02-13T13:10:57.648Z,1.33
2018-02-13T13:13:25.843Z,1.60
2018-02-13T13:15:53.267Z,1.57
2018-02-13T13:18:20.699Z,1.50
2018-02-13T13:20:48.119Z,1.30
2018-02-13T13:23:16.311Z,1.30
2018-02-13T13:25:43.743Z,1.20
2018-02-13T13:28:11.195Z,1.37
2018-02-13T13:30:38.615Z,1.30
2018-02-13T13:33:06.815Z,1.60
2018-02-13T13:35:34.240Z,1.50
2018-02-13T13:38:01.679Z,1.57
2018-02-13T13:40:29.099Z,1.63
2018-02-13T13:42:57.302Z,1.20
2018-02-13T13:45:24.723Z,1.20
2018-02-13T13:47:52.155Z,1.50
2018-02-13T13:50:19.589Z,1.47
2018-02-13T13:52:47.066Z,1.50
2018-02-13T13:55:14.471Z,1.30
2018-02-13T13:57:41.960Z,1.60
2018-02-13T14:00:09.382Z,1.50
2018-02-13T14:02:36.855Z,1.50
2018-02-13T14:05:04.277Z,1.70
2018-02-13T14:07:31.767Z,1.80
2018-02-13T14:09:59.176Z,1.60
2018-02-13T14:12:26.652Z,1.83
2018-02-13T14:14:54.024Z,1.73
2018-02-13T14:17:26.979Z,1.73
2018-02-13T14:19:54.418Z,1.60
2018-02-13T14:22:21.840Z,1.50
2018-02-13T14:24:49.283Z,1.40
2018-02-13T14:27:17.508Z,1.70
2018-02-13T14:29:44.929Z,1.53
2018-02-13T14:32:12.360Z,2.80
2018-02-13T14:34:39.783Z,2.10
2018-02-13T14:37:07.212Z,2.10
2018-02-13T14:39:35.421Z,2.37
2018-02-13T14:42:02.867Z,1.60
2018-02-13T14:44:30.303Z,1.83
2018-02-13T14:46:57.728Z,1.80
2018-02-13T14:49:25.153Z,1.77
2018-02-13T14:51:52.591Z,2.40
2018-02-13T14:54:20.012Z,2.03
2018-02-13T14:56:48.191Z,1.97
2018-02-13T14:59:15.622Z,5.43
2018-02-13T15:01:47.763Z,3.07
2018-02-13T15:04:15.948Z,3.27
2018-02-13T15:06:43.381Z,2.97
2018-02-13T15:09:11.583Z,2.80
2018-02-13T15:11:39.009Z,2.70
2018-02-13T15:14:06.428Z,2.70
2018-02-13T15:16:33.863Z,2.20
2018-02-13T15:19:02.081Z,2.33
2018-02-13T15:21:29.500Z,2.40
2018-02-13T15:23:56.921Z,2.40
2018-02-13T15:26:24.331Z,2.20
2018-02-13T15:28:52.520Z,2.73
2018-02-13T15:31:19.992Z,2.90
2018-02-13T15:33:47.410Z,3.20
2018-02-13T15:36:14.830Z,2.57
2018-02-13T15:38:42.259Z,2.90
2018-02-13T15:41:10.458Z,2.80
2018-02-13T15:43:37.872Z,3.60
2018-02-13T15:46:05.306Z,3.40
2018-02-13T15:48:33.504Z,3.10
2018-02-13T15:51:00.940Z,3.00
2018-02-13T15:53:28.375Z,3.17
2018-02-13T15:55:55.811Z,3.27
2018-02-13T15:58:23.219Z,3.17
2018-02-13T16:00:51.411Z,3.40
2018-02-13T16:03:18.827Z,3.17
2018-02-13T16:05:47.023Z,3.50
2018-02-13T16:08:14.480Z,3.00
2018-02-13T16:10:41.920Z,3.20
2018-02-13T16:13:09.339Z,3.10
2018-02-13T16:15:36.776Z,2.87
2018-02-13T16:18:04.952Z,2.80
2018-02-13T16:20:32.367Z,3.37
2018-02-13T16:22:59.847Z,3.27
2018-02-13T16:25:27.263Z,3.13
2018-02-13T16:27:54.675Z,2.93
2018-02-13T16:30:23.420Z,2.77
2018-02-13T16:32:50.843Z,3.40
2018-02-13T16:35:18.260Z,3.03
2018-02-13T16:37:45.687Z,2.90
2018-02-13T16:40:13.112Z,3.07
2018-02-13T16:42:41.300Z,3.50
2018-02-13T16:45:08.711Z,3.47
2018-02-13T16:47:36.920Z,3.23
2018-02-13T16:50:04.344Z,3.07
2018-02-13T16:52:31.764Z,3.43
2018-02-13T16:54:59.203Z,3.97
2018-02-13T16:57:27.383Z,3.77
2018-02-13T16:59:54.803Z,3.83
2018-02-13T17:02:23.007Z,3.83
2018-02-13T17:04:50.426Z,3.40
2018-02-13T17:07:17.863Z,3.37
2018-02-13T17:09:45.299Z,4.03
2018-02-13T17:12:12.723Z,3.40
2018-02-13T17:14:40.910Z,3.43
2018-02-13T17:17:08.393Z,3.27
2018-02-13T17:19:35.851Z,24.97
2018-02-13T17:22:03.264Z,12.93
2018-02-13T17:24:30.680Z,11.93
2018-02-13T17:26:58.103Z,12.57
2018-02-13T17:29:25.547Z,8.70
2018-02-13T17:31:52.975Z,5.67
2018-02-13T17:34:21.172Z,3.90
2018-02-13T17:36:48.583Z,4.33
2018-02-13T17:39:16.008Z,4.80
2018-02-13T17:41:44.192Z,4.77
2018-02-13T17:44:11.628Z,5.20
2018-02-13T17:46:39.054Z,5.63
2018-02-13T17:49:07.242Z,6.03
2018-02-13T17:51:34.679Z,6.33
2018-02-13T17:54:02.133Z,5.50
2018-02-13T17:56:29.548Z,5.20
2018-02-13T17:58:56.971Z,5.33
2018-02-13T18:01:25.164Z,4.80
2018-02-13T18:03:52.587Z,5.07
2018-02-13T18:06:20.019Z,4.17
2018-02-13T18:08:48.225Z,4.93
2018-02-13T18:11:15.644Z,5.30
2018-02-13T18:13:43.072Z,6.30
2018-02-13T18:16:11.266Z,5.70
2018-02-13T18:18:38.687Z,5.77
2018-02-13T18:21:06.112Z,6.00
2018-02-13T18:23:34.303Z,6.00
2018-02-13T18:26:01.735Z,6.73
2018-02-13T18:28:29.165Z,6.93
2018-02-13T18:30:56.595Z,6.13
2018-02-13T18:33:24.800Z,6.27
2018-02-13T18:35:52.243Z,5.30
2018-02-13T18:38:19.664Z,6.07
2018-02-13T18:40:47.103Z,5.63
2018-02-13T18:43:14.523Z,6.90
2018-02-13T18:45:41.952Z,6.13
2018-02-13T18:48:09.383Z,5.93
2018-02-13T18:50:36.840Z,9.40
2018-02-13T18:55:31.681Z,7.40
2018-02-13T18:57:59.119Z,6.20
2018-02-13T19:00:26.539Z,6.27
2018-02-13T19:02:53.971Z,6.17
2018-02-13T19:05:21.402Z,6.40
2018-02-13T19:07:48.828Z,6.93
2018-02-13T19:10:17.015Z,6.20
2018-02-13T19:12:44.464Z,6.17
2018-02-13T19:15:11.875Z,5.40
2018-02-13T19:17:40.080Z,5.20
2018-02-13T19:20:07.488Z,5.00
2018-02-13T19:22:34.963Z,5.43
2018-02-13T19:25:02.416Z,5.80
2018-02-13T19:27:29.846Z,6.23
2018-02-13T19:29:57.280Z,5.30
2018-02-13T19:32:24.707Z,6.47
2018-02-13T19:34:52.140Z,7.27
2018-02-13T19:37:19.579Z,7.80
2018-02-13T19:39:47.013Z,7.57
2018-02-13T19:42:14.450Z,6.60
2018-02-13T19:44:41.879Z,7.77
2018-02-13T19:47:10.086Z,6.10
2018-02-13T19:49:37.520Z,6.97
2018-02-13T19:52:04.960Z,7.10
2018-02-13T19:54:32.384Z,7.03
2018-02-13T19:56:59.806Z,6.80
2018-02-13T19:59:28.003Z,6.33
2018-02-13T20:01:55.428Z,6.70
2018-02-13T20:04:22.859Z,6.63
2018-02-13T20:06:51.056Z,5.93
2018-02-13T20:09:18.478Z,6.33
2018-02-13T20:11:45.913Z,6.23
2018-02-13T20:14:13.344Z,6.40
2018-02-13T20:16:41.536Z,6.30
2018-02-13T20:19:08.977Z,7.33
2018-02-13T20:21:36.395Z,6.60
2018-02-13T20:24:04.596Z,7.53
2018-02-13T20:26:32.047Z,6.43
2018-02-13T20:28:59.463Z,6.73
2018-02-13T20:31:26.892Z,6.80
2018-02-13T20:33:54.315Z,7.07
2018-02-13T20:36:21.744Z,6.87
2018-02-13T20:38:49.935Z,6.60
2018-02-13T20:41:17.352Z,6.30
2018-02-13T20:43:44.776Z,7.47
2018-02-13T20:46:12.199Z,6.90
2018-02-13T20:48:40.390Z,7.03
2018-02-13T20:51:08.587Z,6.73
2018-02-13T20:53:36.031Z,6.40
2018-02-13T20:56:03.488Z,7.07
2018-02-13T20:58:30.903Z,7.07
2018-02-13T21:00:58.353Z,6.97
2018-02-13T21:03:25.782Z,8.07
2018-02-13T21:05:53.228Z,6.97
2018-02-13T21:08:20.660Z,6.90
2018-02-13T21:10:48.080Z,7.37
2018-02-13T21:13:16.263Z,7.40
2018-02-13T21:15:43.698Z,7.03
2018-02-13T21:18:11.120Z,6.90
2018-02-13T21:20:39.320Z,7.07
2018-02-13T21:23:06.756Z,7.67
2018-02-13T21:25:34.184Z,7.43
2018-02-13T21:28:01.627Z,7.50
2018-02-13T21:30:29.051Z,7.07
2018-02-13T21:32:56.496Z,7.50
2018-02-13T21:35:23.915Z,7.30
2018-02-13T21:37:52.140Z,7.67
2018-02-13T21:40:19.559Z,7.03
2018-02-13T21:42:46.987Z,7.50
2018-02-13T21:45:14.408Z,7.90
2018-02-13T21:47:42.599Z,7.47
2018-02-13T21:50:10.040Z,8.00
2018-02-13T21:52:37.478Z,8.43
2018-02-13T21:55:04.912Z,8.03
2018-02-13T21:57:32.339Z,9.33
2018-02-13T21:59:59.776Z,8.10
2018-02-13T22:02:28.004Z,8.70
2018-02-13T22:04:55.436Z,7.73
2018-02-13T22:07:22.851Z,8.53
2018-02-13T22:09:50.288Z,8.43
2018-02-13T22:12:17.725Z,8.00
2018-02-13T22:14:45.152Z,7.50
2018-02-13T22:17:12.599Z,7.27
2018-02-13T22:19:40.056Z,7.10
2018-02-13T22:22:07.492Z,6.70
2018-02-13T22:24:34.931Z,8.30
2018-02-13T22:27:02.418Z,7.17
2018-02-13T22:29:30.534Z,6.97
2018-02-13T22:31:57.975Z,6.93
2018-02-13T22:34:25.407Z,6.83
2018-02-13T22:36:53.597Z,7.20
2018-02-13T22:39:21.035Z,7.03
2018-02-13T22:41:48.492Z,7.90
2018-02-13T22:44:15.955Z,7.43
2018-02-13T22:46:43.368Z,8.90
2018-02-13T22:49:10.799Z,9.10
2018-02-13T22:51:38.245Z,9.27
2018-02-13T22:54:05.683Z,9.60
2018-02-13T22:56:33.112Z,8.90
2018-02-13T22:59:00.544Z,8.53
2018-02-13T23:01:27.991Z,8.57
2018-02-13T23:03:55.408Z,9.00
2018-02-13T23:06:23.605Z,8.50
2018-02-13T23:08:51.040Z,9.10
2018-02-13T23:11:18.459Z,8.13
2018-02-13T23:13:45.890Z,8.17
2018-02-13T23:16:14.089Z,8.70
2018-02-13T23:18:41.550Z,8.37
2018-02-13T23:21:08.979Z,8.23
2018-02-13T23:23:36.416Z,7.90
2018-02-13T23:26:03.851Z,8.30
2018-02-13T23:28:31.279Z,7.57
2018-02-13T23:30:58.725Z,8.50
2018-02-13T23:33:26.188Z,7.97
2018-02-13T23:35:53.616Z,8.50
2018-02-13T23:38:21.035Z,8.80
2018-02-13T23:40:48.480Z,8.07
2018-02-13T23:43:15.960Z,8.00
2018-02-13T23:45:43.400Z,8.90
2018-02-13T23:48:10.855Z,8.87
2018-02-13T23:50:38.266Z,9.13
2018-02-13T23:53:05.707Z,8.77
2018-02-13T23:55:33.143Z,9.17
2018-02-13T23:58:00.567Z,9.77
